Time;durP1;ratioP1;P1;durP2;ratioP2;P2;SDS_P1;SDS_P2;PMS_P1;PMS_P2;Temp;Humidity;BMP_temperature;BMP_pressure;BME280_temperature;BME280_humidity;BME280_pressure;Samples;Min_cycle;Max_cycle;Signal;HPM_P1;HPM_P2
2023/10/12 00:02:21;;;;;;;8.25;3.17;;;;;;;20.32;63.70;100253.22;7392800;19;20813;-61
2023/10/12 00:05:10;;;;;;;9.23;3.27;;;;;;;20.26;64.03;100240.75;7393654;19;20912;-61
2023/10/12 00:07:38;;;;;;;8.15;3.42;;;;;;;20.31;63.65;100224.66;7390139;19;20368;-61
2023/10/12 00:12:41;;;;;;;6.95;3.33;;;;;;;20.27;63.87;100226.22;7389474;19;20348;-61
2023/10/12 00:15:23;;;;;;;6.25;3.10;;;;;;;20.27;63.79;100225.41;7390239;19;20388;-62
2023/10/12 00:17:58;;;;;;;8.40;3.25;;;;;;;20.27;63.40;100207.34;7390694;19;20428;-62
2023/10/12 00:23:02;;;;;;;8.40;3.28;;;;;;;20.24;63.82;100224.03;7391462;19;20364;-60
2023/10/12 00:25:34;;;;;;;8.48;3.38;;;;;;;20.23;63.93;100219.72;7392137;19;20371;-62
2023/10/12 00:28:01;;;;;;;11.55;3.50;;;;;;;20.22;64.17;100210.00;7390721;19;20336;-61
2023/10/12 00:30:31;;;;;;;8.82;3.80;;;;;;;20.19;64.38;100221.28;7389368;19;20798;-61
2023/10/12 00:32:58;;;;;;;10.23;3.73;;;;;;;20.17;64.55;100212.66;7389904;19;20360;-61
2023/10/12 00:35:25;;;;;;;8.80;3.30;;;;;;;20.12;64.84;100218.75;7392091;19;20486;-61
2023/10/12 00:37:54;;;;;;;6.97;3.00;;;;;;;20.09;65.00;100226.53;7390872;19;20367;-59
2023/10/12 00:40:31;;;;;;;6.10;3.08;;;;;;;20.07;65.08;100218.69;7391200;19;20860;-62
2023/10/12 00:43:00;;;;;;;7.70;3.57;;;;;;;20.07;65.46;100234.84;7391253;19;20349;-61
2023/10/12 00:45:31;;;;;;;10.90;3.67;;;;;;;20.07;65.61;100234.06;7392816;19;20373;-61
2023/10/12 00:48:03;;;;;;;7.32;3.05;;;;;;;20.05;65.86;100234.28;7390256;19;20336;-62
2023/10/12 00:50:31;;;;;;;8.88;3.22;;;;;;;20.02;66.32;100232.13;7390274;19;20372;-62
2023/10/12 00:53:14;;;;;;;9.10;3.30;;;;;;;20.00;66.86;100249.56;7387667;19;20876;-61
2023/10/12 00:55:43;;;;;;;9.90;3.57;;;;;;;19.95;67.31;100247.59;7391475;19;20377;-61
2023/10/12 00:58:10;;;;;;;7.97;3.47;;;;;;;19.87;67.67;100246.19;7391311;19;20843;-62
2023/10/12 01:01:00;;;;;;;7.90;3.38;;;;;;;19.81;68.43;100236.41;7392357;19;20428;-61
2023/10/12 01:03:30;;;;;;;9.05;3.60;;;;;;;19.71;69.76;100234.34;7390257;19;20359;-62
2023/10/12 01:08:42;;;;;;;13.48;3.80;;;;;;;19.52;70.77;100231.06;7388183;19;20336;-61
2023/10/12 01:11:20;;;;;;;9.27;3.78;;;;;;;19.42;71.66;100238.19;7387504;19;20424;-61
2023/10/12 01:16:42;;;;;;;7.95;3.42;;;;;;;19.28;72.42;100249.25;7390498;19;20375;-62
2023/10/12 01:19:09;;;;;;;7.95;3.67;;;;;;;19.21;73.52;100237.84;7394077;19;20415;-61
2023/10/12 01:21:36;;;;;;;9.40;3.65;;;;;;;19.12;74.07;100241.97;7397493;19;20360;-61
2023/10/12 01:24:11;;;;;;;9.20;3.92;;;;;;;19.04;74.82;100243.22;7396924;19;20892;-60
2023/10/12 01:26:39;;;;;;;6.70;3.63;;;;;;;18.97;74.97;100255.97;7395161;19;20345;-61
2023/10/12 01:29:10;;;;;;;8.00;3.80;;;;;;;18.92;75.63;100254.00;7394262;19;20332;-62
2023/10/12 01:31:38;;;;;;;8.52;4.00;;;;;;;18.85;76.45;100255.19;7391743;19;20374;-62
2023/10/12 01:34:05;;;;;;;7.93;4.05;;;;;;;18.80;77.04;100263.19;7394079;19;20328;-62
2023/10/12 01:36:33;;;;;;;7.93;4.07;;;;;;;18.72;78.00;100259.81;7393932;19;20340;-63
2023/10/12 01:39:13;;;;;;;9.05;4.20;;;;;;;18.58;79.14;100261.13;7395198;19;20496;-63
2023/10/12 01:41:40;;;;;;;11.18;4.43;;;;;;;18.49;79.08;100259.88;7396275;19;20901;-63
2023/10/12 01:44:11;;;;;;;7.65;4.10;;;;;;;18.41;79.73;100260.25;7395738;19;20354;-62
2023/10/12 01:46:40;;;;;;;9.70;4.93;;;;;;;18.34;80.77;100265.75;7395118;19;20347;-63
2023/10/12 01:49:08;;;;;;;10.63;4.55;;;;;;;18.21;81.92;100277.56;7396429;19;20361;-63
2023/10/12 01:51:45;;;;;;;11.15;4.60;;;;;;;18.13;82.73;100272.56;7396209;19;20370;-63
2023/10/12 01:54:14;;;;;;;12.40;5.10;;;;;;;18.00;83.58;100275.47;7395267;19;20365;-64
2023/10/12 01:56:41;;;;;;;8.20;4.80;;;;;;;17.92;84.76;100279.34;7392769;19;20371;-65
2023/10/12 01:59:07;;;;;;;10.43;5.38;;;;;;;17.79;86.26;100274.97;7394807;19;20364;-65
2023/10/12 02:01:34;;;;;;;9.90;5.22;;;;;;;17.61;88.03;100283.13;7394205;19;20771;-65
2023/10/12 02:04:05;;;;;;;10.43;5.80;;;;;;;17.46;89.19;100289.75;7387441;19;20388;-65
2023/10/12 02:06:33;;;;;;;9.07;5.85;;;;;;;17.34;90.65;100296.97;7393319;19;20352;-66
2023/10/12 02:09:08;;;;;;;12.90;6.53;;;;;;;17.22;91.42;100293.44;7393680;19;20378;-66
2023/10/12 02:11:43;;;;;;;11.98;6.85;;;;;;;17.12;92.82;100296.66;7394331;19;20373;-64
2023/10/12 02:14:31;;;;;;;14.50;6.95;;;;;;;17.04;93.80;100289.75;7396238;19;20865;-64
2023/10/12 02:17:02;;;;;;;11.15;6.53;;;;;;;16.94;94.27;100308.25;7390456;19;20432;-67
2023/10/12 02:19:31;;;;;;;12.70;6.43;;;;;;;16.84;95.95;100310.63;7396348;19;21006;-67
2023/10/12 02:22:03;;;;;;;12.55;7.05;;;;;;;16.78;96.31;100300.78;7394147;19;20675;-67
2023/10/12 02:24:30;;;;;;;14.77;7.07;;;;;;;16.74;96.71;100289.69;7391510;19;20375;-67
2023/10/12 02:27:00;;;;;;;11.57;6.33;;;;;;;16.64;97.95;100316.19;7396995;19;20369;-66
2023/10/12 02:29:35;;;;;;;11.77;7.35;;;;;;;16.62;97.77;100311.06;7391392;19;21486;-67
2023/10/12 02:32:17;;;;;;;12.17;6.57;;;;;;;16.53;99.11;100309.72;7395688;19;20406;-66
2023/10/12 02:34:44;;;;;;;15.20;7.35;;;;;;;16.49;99.55;100316.56;7395499;19;20428;-67
2023/10/12 02:39:42;;;;;;;13.23;7.27;;;;;;;16.43;100.00;100309.44;7390848;19;20518;-66
2023/10/12 02:47:32;;;;;;;13.77;7.07;;;;;;;16.25;99.78;100321.75;7396246;19;20381;-67
2023/10/12 02:52:36;;;;;;;11.68;6.55;;;;;;;16.21;100.00;100312.53;7395902;19;20408;-67
2023/10/12 02:55:09;;;;;;;11.82;7.60;;;;;;;16.20;100.00;100326.97;7393811;19;20354;-67
2023/10/12 02:57:37;;;;;;;11.98;7.43;;;;;;;16.19;100.00;100329.84;7392380;19;20363;-67
2023/10/12 03:00:31;;;;;;;12.00;7.03;;;;;;;16.12;100.00;100334.47;7394896;19;20389;-67
2023/10/12 03:02:58;;;;;;;13.35;7.30;;;;;;;16.07;100.00;100345.81;7394700;19;20368;-67
2023/10/12 03:05:33;;;;;;;14.05;7.10;;;;;;;16.03;100.00;100349.97;7394041;19;20393;-67
2023/10/12 03:08:06;;;;;;;12.75;7.68;;;;;;;16.00;100.00;100353.06;7395492;19;20354;-68
2023/10/12 03:10:33;;;;;;;13.15;7.85;;;;;;;15.94;100.00;100351.28;7393472;19;20638;-69
2023/10/12 03:13:04;;;;;;;13.10;7.78;;;;;;;15.89;100.00;100360.78;7395263;19;20900;-69
2023/10/12 03:15:59;;;;;;;12.65;7.72;;;;;;;15.85;100.00;100362.28;7392519;19;20458;-68
2023/10/12 03:18:27;;;;;;;16.55;8.70;;;;;;;15.81;100.00;100360.22;7391223;19;20874;-68
2023/10/12 03:21:05;;;;;;;13.13;8.03;;;;;;;15.72;100.00;100372.22;7381916;19;20871;-68
2023/10/12 03:23:34;;;;;;;12.95;7.47;;;;;;;15.65;100.00;100377.59;7388036;19;20809;-68
2023/10/12 03:28:46;;;;;;;13.32;7.68;;;;;;;15.57;100.00;100381.34;7392100;19;20380;-68
2023/10/12 03:33:54;;;;;;;12.23;7.78;;;;;;;15.47;100.00;100399.69;7389883;19;20840;-68
2023/10/12 03:36:32;;;;;;;13.82;7.78;;;;;;;15.43;100.00;100396.66;7386183;19;20378;-68
2023/10/12 03:41:46;;;;;;;15.68;8.43;;;;;;;15.38;100.00;100403.66;7392181;19;20336;-69
2023/10/12 03:44:26;;;;;;;12.50;8.05;;;;;;;15.35;100.00;100398.75;7395445;19;20687;-69
2023/10/12 03:47:04;;;;;;;15.27;8.95;;;;;;;15.32;100.00;100415.19;7394308;19;20875;-69
2023/10/12 03:49:32;;;;;;;12.32;7.80;;;;;;;15.26;100.00;100409.69;7393110;19;20372;-69
2023/10/12 03:51:59;;;;;;;14.05;8.77;;;;;;;15.26;100.00;100412.38;7390609;19;20356;-69
2023/10/12 03:54:28;;;;;;;12.87;7.40;;;;;;;15.18;100.00;100409.13;7392226;19;20368;-70
2023/10/12 03:57:45;;;;;;;16.13;8.57;;;;;;;15.16;100.00;100413.84;7391231;19;20344;-69
2023/10/12 04:05:21;;;;;;;14.15;7.80;;;;;;;15.12;100.00;100420.66;7390517;19;20697;-70
2023/10/12 04:13:07;;;;;;;11.60;7.47;;;;;;;15.09;100.00;100406.69;7392333;19;20348;-69
2023/10/12 04:16:05;;;;;;;14.15;8.75;;;;;;;15.08;100.00;100405.03;7391548;19;20718;-70
2023/10/12 04:18:28;;;;;;;14.52;8.20;;;;;;;15.11;100.00;100419.00;7391614;19;20364;-70
2023/10/12 04:20:58;;;;;;;15.48;8.10;;;;;;;15.08;100.00;100421.06;7390292;19;20337;-68
2023/10/12 04:28:56;;;;;;;14.43;8.40;;;;;;;15.11;100.00;100419.84;7388117;19;20357;-70
2023/10/12 04:31:49;;;;;;;15.38;9.07;;;;;;;15.13;100.00;100430.28;7388875;19;20684;-70
2023/10/12 04:34:19;;;;;;;16.53;9.60;;;;;;;15.13;100.00;100428.47;7399100;19;20442;-71
2023/10/12 04:36:52;;;;;;;20.33;10.70;;;;;;;15.14;100.00;100427.41;7392682;19;20430;-71
2023/10/12 04:39:25;;;;;;;17.02;9.75;;;;;;;15.13;100.00;100412.44;7393609;19;20379;-71
2023/10/12 04:42:20;;;;;;;16.85;10.07;;;;;;;15.12;100.00;100404.63;7389405;19;20363;-71
2023/10/12 04:47:35;;;;;;;17.40;11.57;;;;;;;15.15;100.00;100398.84;7392628;19;20724;-71
2023/10/12 04:50:05;;;;;;;20.03;11.63;;;;;;;15.14;100.00;100383.84;7390273;19;20435;-71
2023/10/12 04:52:37;;;;;;;17.17;10.33;;;;;;;15.15;100.00;100372.13;7392487;19;20355;-70
2023/10/12 04:55:20;;;;;;;19.10;10.65;;;;;;;15.16;100.00;100368.44;7392102;19;20403;-72
2023/10/12 04:58:09;;;;;;;19.80;11.05;;;;;;;15.16;100.00;100369.25;7390590;19;20424;-71
2023/10/12 05:00:48;;;;;;;23.35;12.02;;;;;;;15.17;100.00;100370.06;7390717;19;20432;-71
2023/10/12 05:03:26;;;;;;;17.75;11.35;;;;;;;15.15;100.00;100370.28;7394757;19;20348;-71
2023/10/12 05:06:03;;;;;;;19.20;11.95;;;;;;;15.16;100.00;100373.78;7391127;19;20332;-71
2023/10/12 05:08:33;;;;;;;19.85;10.63;;;;;;;15.13;100.00;100366.16;7389910;19;20361;-70
2023/10/12 05:11:00;;;;;;;18.02;9.68;;;;;;;15.09;100.00;100369.28;7393874;19;20368;-70
2023/10/12 05:13:28;;;;;;;17.70;10.10;;;;;;;15.08;100.00;100372.97;7395194;19;20376;-70
2023/10/12 05:15:55;;;;;;;19.60;10.00;;;;;;;15.07;100.00;100390.03;7393689;19;20364;-70
2023/10/12 05:18:24;;;;;;;18.75;9.98;;;;;;;15.07;100.00;100395.38;7392000;19;20349;-70
2023/10/12 05:20:52;;;;;;;17.10;10.30;;;;;;;15.07;100.00;100416.75;7389415;19;20443;-69
2023/10/12 05:23:19;;;;;;;20.83;11.10;;;;;;;15.09;100.00;100400.53;7390753;19;20361;-70
2023/10/12 05:28:27;;;;;;;21.92;11.07;;;;;;;15.09;100.00;100422.72;7394058;19;20348;-70
2023/10/12 05:30:59;;;;;;;20.80;11.95;;;;;;;15.09;100.00;100420.03;7391249;19;20368;-70
2023/10/12 05:35:59;;;;;;;19.80;11.32;;;;;;;15.13;100.00;100412.44;7391985;19;20348;-71
2023/10/12 05:38:34;;;;;;;20.17;11.20;;;;;;;15.17;100.00;100404.78;7391623;19;20364;-71
2023/10/12 05:41:02;;;;;;;20.85;11.35;;;;;;;15.19;100.00;100410.75;7391786;19;20393;-71
2023/10/12 05:43:33;;;;;;;18.17;10.50;;;;;;;15.20;100.00;100423.09;7394592;19;20424;-71
2023/10/12 05:46:09;;;;;;;21.67;11.35;;;;;;;15.22;100.00;100432.53;7391172;19;20386;-70
2023/10/12 05:48:41;;;;;;;18.65;10.82;;;;;;;15.24;100.00;100435.00;7392264;19;20351;-70
2023/10/12 05:51:10;;;;;;;17.85;10.35;;;;;;;15.23;100.00;100433.34;7389900;19;20898;-66
2023/10/12 05:53:37;;;;;;;29.45;17.95;;;;;;;15.27;100.00;100448.72;7387457;19;20448;-65
2023/10/12 05:56:06;;;;;;;11.80;7.40;;;;;;;15.20;100.00;100455.16;7385956;19;20366;-65
2023/10/12 05:58:40;;;;;;;48.58;30.98;;;;;;;15.19;100.00;100464.19;7385121;19;20393;-66
2023/10/12 06:01:10;;;;;;;15.30;8.57;;;;;;;15.12;100.00;100453.53;7393927;19;20349;-65
2023/10/12 06:03:56;;;;;;;5.85;3.30;;;;;;;15.01;100.00;100472.88;7391464;19;20356;-65
2023/10/12 06:06:23;;;;;;;15.98;8.32;;;;;;;14.89;100.00;100470.84;7396338;19;20372;-66
2023/10/12 06:08:52;;;;;;;4.45;1.90;;;;;;;14.82;100.00;100470.03;7399346;19;20348;-64
2023/10/12 06:11:25;;;;;;;7.40;2.92;;;;;;;14.80;100.00;100473.94;7399883;19;20709;-65
2023/10/12 06:13:53;;;;;;;6.35;2.58;;;;;;;14.73;100.00;100500.66;7400196;19;20392;-65
2023/10/12 06:16:20;;;;;;;18.83;10.50;;;;;;;14.64;100.00;100510.72;7388137;19;20677;-65
2023/10/12 06:18:49;;;;;;;24.15;12.60;;;;;;;14.51;100.00;100521.38;7396123;19;20390;-64
2023/10/12 06:21:17;;;;;;;57.37;32.20;;;;;;;14.52;100.00;100525.69;7394744;19;20993;-65
2023/10/12 06:23:51;;;;;;;8.70;3.40;;;;;;;14.48;100.00;100527.13;7396733;19;20369;-64
2023/10/12 06:26:34;;;;;;;24.67;13.93;;;;;;;14.38;100.00;100524.84;7396690;19;20383;-64
2023/10/12 06:29:01;;;;;;;10.18;5.25;;;;;;;14.39;100.00;100525.69;7397084;19;20487;-65
2023/10/12 06:31:31;;;;;;;12.10;6.20;;;;;;;14.37;100.00;100520.53;7397446;19;20428;-65
2023/10/12 06:34:02;;;;;;;16.17;8.43;;;;;;;14.33;100.00;100534.50;7396389;19;20356;-65
2023/10/12 06:36:39;;;;;;;8.23;3.53;;;;;;;14.30;100.00;100535.72;7397687;19;20344;-64
2023/10/12 06:46:48;;;;;;;31.30;14.48;;;;;;;14.23;100.00;100550.91;7398971;19;20352;-64
2023/10/12 06:49:18;;;;;;;11.00;3.40;;;;;;;14.24;100.00;100545.38;7398651;19;20908;-65
2023/10/12 06:52:00;;;;;;;20.37;9.50;;;;;;;14.25;100.00;100544.34;7396436;19;20485;-65
2023/10/12 07:02:29;;;;;;;10.88;3.15;;;;;;;14.20;100.00;100562.00;7398459;19;20364;-64
2023/10/12 07:05:01;;;;;;;8.13;3.15;;;;;;;14.18;100.00;100564.84;7397676;19;20357;-64
2023/10/12 07:07:36;;;;;;;10.07;2.65;;;;;;;14.19;100.00;100577.16;7392385;19;20361;-64
2023/10/12 07:12:41;;;;;;;57.40;30.80;;;;;;;14.12;100.00;100602.19;7396694;19;20360;-64
2023/10/12 07:15:14;;;;;;;23.63;13.80;;;;;;;14.07;100.00;100610.78;7395460;19;20960;-64
2023/10/12 07:17:49;;;;;;;11.55;3.97;;;;;;;14.02;100.00;100610.53;7396066;19;20340;-64
2023/10/12 07:20:40;;;;;;;12.57;5.07;;;;;;;13.94;100.00;100610.72;7396413;19;20680;-64
2023/10/12 07:25:48;;;;;;;8.53;2.10;;;;;;;13.88;100.00;100615.03;7396141;19;20879;-65
2023/10/12 07:28:32;;;;;;;28.42;15.32;;;;;;;13.81;100.00;100623.00;7394795;19;20344;-65
2023/10/12 07:33:36;;;;;;;10.25;2.00;;;;;;;13.83;100.00;100615.63;7393432;19;21405;-65
2023/10/12 07:36:17;;;;;;;5.22;1.63;;;;;;;13.85;100.00;100618.06;7397475;19;20361;-65
2023/10/12 07:38:46;;;;;;;10.38;2.10;;;;;;;13.82;100.00;100624.63;7396262;19;20356;-65
2023/10/12 07:41:13;;;;;;;7.15;1.83;;;;;;;13.84;100.00;100627.91;7398073;19;20451;-64
2023/10/12 07:43:41;;;;;;;9.07;1.90;;;;;;;13.89;100.00;100623.84;7397464;19;20341;-64
2023/10/12 07:46:14;;;;;;;28.70;13.80;;;;;;;13.86;100.00;100636.53;7395311;19;20363;-65
2023/10/12 07:48:44;;;;;;;9.27;2.22;;;;;;;13.90;100.00;100636.97;7396684;19;20654;-64
2023/10/12 07:51:15;;;;;;;11.75;3.72;;;;;;;13.91;100.00;100637.78;7394931;19;20415;-65
2023/10/12 07:53:44;;;;;;;7.47;2.00;;;;;;;13.92;100.00;100639.44;7395219;19;20389;-65
2023/10/12 07:56:15;;;;;;;17.33;6.70;;;;;;;13.90;100.00;100644.13;7396466;19;20356;-65
2023/10/12 07:58:44;;;;;;;8.52;3.10;;;;;;;13.86;100.00;100646.41;7396212;19;20430;-65
2023/10/12 08:01:26;;;;;;;37.80;17.05;;;;;;;13.89;100.00;100656.66;7396225;19;20351;-64
2023/10/12 08:03:58;;;;;;;10.83;2.30;;;;;;;13.87;100.00;100643.50;7393171;19;20364;-64
2023/10/12 08:06:36;;;;;;;10.60;2.95;;;;;;;13.79;100.00;100649.03;7395705;19;20376;-64
2023/10/12 08:11:49;;;;;;;21.27;9.30;;;;;;;13.82;100.00;100661.97;7393494;19;20368;-64
2023/10/12 08:19:43;;;;;;;8.95;2.38;;;;;;;13.78;100.00;100676.69;7394767;19;20368;-64
2023/10/12 08:22:25;;;;;;;13.25;3.13;;;;;;;13.74;100.00;100680.78;7394219;19;20935;-64
2023/10/12 08:24:56;;;;;;;18.90;6.13;;;;;;;13.72;100.00;100682.00;7393069;19;20871;-64
2023/10/12 08:27:24;;;;;;;7.60;2.75;;;;;;;13.77;100.00;100684.88;7394212;19;20381;-64
2023/10/12 08:37:27;;;;;;;12.73;2.60;;;;;;;13.75;100.00;100684.25;7394770;19;20364;-64
2023/10/12 08:45:07;;;;;;;20.88;7.82;;;;;;;13.78;100.00;100692.69;7394532;19;20355;-64
2023/10/12 08:50:47;;;;;;;9.57;2.55;;;;;;;13.83;100.00;100698.28;7391809;19;20344;-64
2023/10/12 08:53:03;;;;;;;9.43;2.42;;;;;;;13.88;100.00;100697.69;7395005;19;20340;-64
2023/10/12 08:55:31;;;;;;;9.30;1.98;;;;;;;13.95;100.00;100703.06;7394311;19;20867;-64
2023/10/12 08:58:31;;;;;;;12.70;3.05;;;;;;;13.95;99.94;100708.38;7394833;19;20391;-64
2023/10/12 09:03:28;;;;;;;18.55;8.20;;;;;;;13.95;99.05;100705.72;7393059;19;20357;-64
2023/10/12 09:05:55;;;;;;;7.95;2.42;;;;;;;13.89;97.28;100709.16;7392412;19;20368;-64
2023/10/12 09:10:49;;;;;;;24.23;7.32;;;;;;;13.98;97.98;100715.97;7391370;19;20371;-63
2023/10/12 09:13:19;;;;;;;12.90;3.08;;;;;;;14.02;98.24;100717.25;7394075;19;20345;-63
2023/10/12 09:15:50;;;;;;;14.50;4.43;;;;;;;14.03;97.91;100722.38;7393057;19;20356;-64
2023/10/12 09:18:17;;;;;;;13.70;3.30;;;;;;;14.06;97.80;100729.16;7389620;19;20844;-64
2023/10/12 09:31:13;;;;;;;20.42;8.98;;;;;;;14.25;96.60;100731.09;7393321;19;20368;-63
2023/10/12 09:33:45;;;;;;;20.07;4.90;;;;;;;14.35;97.11;100729.94;7394085;19;20919;-64
2023/10/12 09:36:12;;;;;;;8.93;2.73;;;;;;;14.43;96.72;100733.25;7393498;19;20352;-63
2023/10/12 09:38:39;;;;;;;10.25;2.53;;;;;;;14.49;95.68;100736.94;7393138;19;20377;-64
2023/10/12 09:41:09;;;;;;;26.15;12.60;;;;;;;14.56;95.46;100716.50;7399496;19;20360;-64
2023/10/12 09:43:40;;;;;;;13.68;3.90;;;;;;;14.62;93.93;100720.19;7400397;19;20368;-64
2023/10/12 09:46:14;;;;;;;8.83;2.80;;;;;;;14.67;93.88;100718.56;7400604;19;20431;-64
2023/10/12 09:48:44;;;;;;;8.85;2.50;;;;;;;14.76;94.14;100724.53;7399833;19;20973;-64
2023/10/12 09:51:18;;;;;;;11.57;3.92;;;;;;;14.81;92.07;100730.13;7400902;19;20357;-64
2023/10/12 09:53:57;;;;;;;14.27;3.28;;;;;;;14.92;92.38;100725.19;7398570;19;20367;-64
2023/10/12 09:56:44;;;;;;;23.67;6.80;;;;;;;15.10;93.90;100728.09;7399802;19;20364;-64
2023/10/12 09:59:18;;;;;;;10.13;2.60;;;;;;;15.28;91.61;100724.84;7398590;19;20361;-64
2023/10/12 10:01:50;;;;;;;8.10;2.38;;;;;;;15.39;91.46;100729.56;7398810;19;20694;-64
2023/10/12 10:07:25;;;;;;;8.20;2.13;;;;;;;15.56;89.36;100738.00;7396107;19;20356;-64
2023/10/12 10:09:58;;;;;;;10.20;2.67;;;;;;;15.64;88.11;100740.44;7399124;19;20891;-64
2023/10/12 10:12:27;;;;;;;7.30;1.85;;;;;;;15.71;88.00;100740.44;7399924;19;20376;-64
2023/10/12 10:15:10;;;;;;;12.80;2.15;;;;;;;15.86;89.19;100743.72;7396112;19;20356;-64
2023/10/12 10:17:47;;;;;;;10.00;2.30;;;;;;;16.04;88.65;100739.56;7400929;19;20439;-63
2023/10/12 10:22:59;;;;;;;11.80;2.88;;;;;;;16.33;87.72;100743.59;7398736;19;20799;-64
2023/10/12 10:25:28;;;;;;;12.00;2.83;;;;;;;16.43;85.21;100744.00;7397033;19;20399;-64
2023/10/12 10:27:57;;;;;;;11.82;2.53;;;;;;;16.52;85.43;100745.38;7399300;19;20364;-63
2023/10/12 10:30:36;;;;;;;11.70;3.13;;;;;;;16.61;84.33;100743.28;7398038;19;20361;-64
2023/10/12 10:33:12;;;;;;;7.40;1.70;;;;;;;16.69;82.69;100745.72;7397473;19;20705;-64
2023/10/12 10:36:00;;;;;;;6.18;1.95;;;;;;;16.80;82.87;100743.41;7398868;19;20360;-63
2023/10/12 10:38:32;;;;;;;11.85;2.45;;;;;;;16.91;83.42;100745.41;7397615;19;20369;-62
2023/10/12 10:41:17;;;;;;;11.70;2.63;;;;;;;17.01;83.14;100745.75;7398411;19;20398;-62
2023/10/12 10:43:46;;;;;;;11.83;2.23;;;;;;;17.06;82.17;100745.94;7397886;19;20352;-62
2023/10/12 10:46:16;;;;;;;8.30;1.90;;;;;;;17.08;80.84;100735.81;7398937;19;20392;-62
2023/10/12 10:48:50;;;;;;;10.57;2.30;;;;;;;17.07;80.89;100747.59;7399560;19;20432;-63
2023/10/12 10:51:27;;;;;;;10.35;2.13;;;;;;;16.98;79.72;100740.84;7393096;19;21907;-62
2023/10/12 10:53:54;;;;;;;7.07;1.90;;;;;;;16.94;80.75;100742.31;7398183;19;20361;-63
2023/10/12 10:56:35;;;;;;;13.43;2.30;;;;;;;16.91;80.81;100737.38;7397823;19;21101;-63
2023/10/12 10:59:06;;;;;;;9.13;2.70;;;;;;;16.85;80.44;100736.41;7394966;19;20369;-63
2023/10/12 11:01:33;;;;;;;9.77;2.30;;;;;;;16.88;80.55;100729.78;7393884;19;20884;-63
2023/10/12 11:04:01;;;;;;;7.72;2.05;;;;;;;16.90;80.34;100733.06;7399427;19;20412;-63
2023/10/12 11:06:31;;;;;;;45.17;24.58;;;;;;;16.98;81.37;100735.50;7394551;19;20397;-63
2023/10/12 11:09:14;;;;;;;15.23;6.22;;;;;;;17.07;81.78;100728.00;7397083;19;20355;-63
2023/10/12 11:11:48;;;;;;;8.77;2.33;;;;;;;17.18;82.02;100732.66;7399200;19;20372;-62
2023/10/12 11:14:18;;;;;;;16.42;6.55;;;;;;;17.27;81.56;100735.91;7398080;19;20369;-63
2023/10/12 11:16:48;;;;;;;19.23;8.43;;;;;;;17.26;80.05;100743.13;7396328;19;20373;-62
2023/10/12 11:19:19;;;;;;;10.02;2.95;;;;;;;17.22;80.49;100739.22;7396245;19;20385;-62
2023/10/12 11:21:51;;;;;;;8.87;2.10;;;;;;;17.20;80.50;100732.44;7396192;19;20355;-63
2023/10/12 11:24:23;;;;;;;11.88;2.17;;;;;;;17.10;79.57;100738.28;7399144;19;20353;-62
2023/10/12 11:26:55;;;;;;;10.63;2.58;;;;;;;17.00;79.49;100730.75;7396466;19;20714;-63
2023/10/12 11:29:24;;;;;;;11.35;2.42;;;;;;;16.95;79.93;100735.91;7396156;19;20714;-63
2023/10/12 11:32:16;;;;;;;9.30;2.35;;;;;;;16.89;80.14;100734.09;7396183;19;20361;-63
2023/10/12 11:34:44;;;;;;;9.98;2.47;;;;;;;16.80;80.45;100735.34;7397375;19;20357;-63
2023/10/12 11:37:13;;;;;;;10.05;2.00;;;;;;;16.74;81.70;100746.94;7397622;19;20720;-63
2023/10/12 11:39:44;;;;;;;8.45;2.20;;;;;;;16.57;81.51;100743.91;7395532;19;20480;-62
2023/10/12 11:42:12;;;;;;;13.95;4.18;;;;;;;16.47;82.39;100733.69;7395086;19;20341;-62
2023/10/12 11:44:45;;;;;;;10.88;2.72;;;;;;;16.42;83.79;100736.97;7393323;19;20360;-62
2023/10/12 11:47:37;;;;;;;14.00;4.53;;;;;;;16.35;83.49;100736.19;7397589;19;20344;-63
2023/10/12 11:50:09;;;;;;;8.38;2.38;;;;;;;16.24;83.43;100735.00;7396084;19;20765;-61
2023/10/12 11:52:40;;;;;;;9.27;2.38;;;;;;;16.16;84.11;100735.22;7395072;19;20927;-62
2023/10/12 11:55:19;;;;;;;8.70;2.00;;;;;;;16.14;84.44;100726.59;7395935;19;20368;-62
2023/10/12 11:58:08;;;;;;;8.27;2.60;;;;;;;16.18;84.64;100735.84;7394441;19;20340;-61
2023/10/12 12:00:38;;;;;;;10.70;2.35;;;;;;;16.22;85.87;100737.06;7387833;19;20357;-60
2023/10/12 12:03:08;;;;;;;11.35;2.42;;;;;;;16.28;85.68;100741.56;7390113;19;20360;-61
2023/10/12 12:05:39;;;;;;;7.95;1.92;;;;;;;16.36;86.07;100731.66;7393887;19;20867;-61
2023/10/12 12:08:07;;;;;;;10.55;2.40;;;;;;;16.36;85.09;100737.00;7396764;19;20665;-61
2023/10/12 12:10:38;;;;;;;8.77;1.90;;;;;;;16.38;86.07;100734.94;7395799;19;20367;-60
2023/10/12 12:13:09;;;;;;;8.60;2.15;;;;;;;16.41;86.26;100735.34;7394783;19;20361;-61
2023/10/12 12:15:36;;;;;;;8.88;2.10;;;;;;;16.33;85.11;100729.41;7394072;19;21061;-61
2023/10/12 12:18:10;;;;;;;9.57;2.47;;;;;;;16.20;85.05;100733.78;7392289;19;20356;-62
2023/10/12 12:20:39;;;;;;;9.57;2.53;;;;;;;16.08;85.74;100732.78;7390259;19;20844;-61
2023/10/12 12:23:10;;;;;;;10.60;2.08;;;;;;;16.01;86.21;100721.28;7393968;19;20688;-62
2023/10/12 12:25:41;;;;;;;11.93;2.30;;;;;;;15.95;86.05;100730.94;7395602;19;20357;-62
2023/10/12 12:28:21;;;;;;;12.20;2.53;;;;;;;15.92;86.38;100728.72;7394076;19;20353;-62
2023/10/12 12:30:55;;;;;;;10.07;2.47;;;;;;;15.90;86.63;100728.09;7394214;19;20880;-61
2023/10/12 12:33:25;;;;;;;14.77;2.58;;;;;;;15.84;87.48;100729.75;7394309;19;20447;-62
2023/10/12 12:36:10;;;;;;;7.63;1.83;;;;;;;15.80;87.70;100728.50;7391800;19;20356;-60
2023/10/12 12:41:18;;;;;;;9.75;2.00;;;;;;;15.77;88.26;100723.59;7395785;19;20840;-60
2023/10/12 12:43:46;;;;;;;20.73;5.90;;;;;;;15.74;88.59;100718.66;7396104;19;20735;-61
2023/10/12 12:46:13;;;;;;;18.10;7.82;;;;;;;15.71;89.58;100721.72;7393478;19;20411;-61
2023/10/12 12:48:45;;;;;;;33.13;16.33;;;;;;;15.72;90.31;100726.06;7394051;19;20864;-61
2023/10/12 12:51:15;;;;;;;53.55;32.42;;;;;;;15.72;89.94;100726.06;7394221;19;20361;-62
2023/10/12 12:53:46;;;;;;;32.67;15.43;;;;;;;15.70;89.67;100730.75;7393029;19;20369;-61
2023/10/12 12:56:14;;;;;;;67.85;39.97;;;;;;;15.66;89.51;100721.50;7393874;19;20369;-61
2023/10/12 12:58:49;;;;;;;19.70;6.82;;;;;;;15.64;89.88;100723.56;7391422;19;21012;-62
2023/10/12 13:01:18;;;;;;;11.48;3.47;;;;;;;15.67;89.90;100723.16;7395628;19;20368;-61
2023/10/12 13:03:45;;;;;;;12.82;2.80;;;;;;;15.67;89.19;100726.66;7394264;19;20360;-62
2023/10/12 13:06:15;;;;;;;10.25;2.65;;;;;;;15.64;89.63;100723.56;7392562;19;20364;-61
2023/10/12 13:08:42;;;;;;;10.10;2.50;;;;;;;15.63;89.64;100727.28;7395366;19;20348;-62
2023/10/12 13:11:11;;;;;;;8.35;2.58;;;;;;;15.64;90.00;100718.22;7392743;19;20359;-62
2023/10/12 13:13:41;;;;;;;16.23;7.67;;;;;;;15.67;90.12;100717.81;7393982;19;20401;-61
2023/10/12 13:16:12;;;;;;;14.02;3.20;;;;;;;15.70;90.79;100717.38;7398413;19;20356;-62
2023/10/12 13:18:46;;;;;;;9.25;3.05;;;;;;;15.77;90.22;100712.91;7401967;19;20356;-61
2023/10/12 13:21:15;;;;;;;9.13;2.75;;;;;;;15.78;89.90;100713.72;7401098;19;20375;-61
2023/10/12 13:23:43;;;;;;;482.25;329.95;;;;;;;15.83;90.97;100714.75;7401416;19;20710;-62
2023/10/12 13:26:12;;;;;;;13.98;5.25;;;;;;;15.87;89.85;100704.41;7398738;19;20793;-60
2023/10/12 13:28:41;;;;;;;10.30;2.83;;;;;;;15.85;89.78;100707.34;7401853;19;20469;-61
2023/10/12 13:31:12;;;;;;;7.50;2.22;;;;;;;15.88;90.16;100714.94;7397023;19;20867;-62
2023/10/12 13:33:43;;;;;;;50.22;29.95;;;;;;;15.86;89.75;100711.63;7399156;19;20844;-61
2023/10/12 13:36:11;;;;;;;29.38;15.52;;;;;;;15.79;89.63;100710.84;7400259;19;20674;-61
2023/10/12 13:38:38;;;;;;;10.87;3.90;;;;;;;15.72;89.54;100715.34;7400922;19;20332;-61
2023/10/12 13:41:05;;;;;;;15.02;5.05;;;;;;;15.67;89.52;100707.13;7398177;19;20353;-62
2023/10/12 13:43:34;;;;;;;8.05;2.80;;;;;;;15.60;89.69;100717.81;7397244;19;20395;-62